Time;durP1;ratioP1;P1;durP2;ratioP2;P2;SDS_P1;SDS_P2;PMS_P1;PMS_P2;Temp;Humidity;BMP_temperature;BMP_pressure;BME280_temperature;BME280_humidity;BME280_pressure;Samples;Min_cycle;Max_cycle;Signal;HPM_P1;HPM_P2
2020/12/23 00:02:22;;;;;;;65.50;40.07;;;;;;;;;;6233480;23;20438;-96
2020/12/23 00:04:48;;;;;;;59.07;36.20;;;;;;;;;;6235398;23;20426;-96
2020/12/23 00:07:15;;;;;;;66.53;40.00;;;;;;;;;;6233143;23;20419;-96
2020/12/23 00:09:42;;;;;;;64.57;38.90;;;;;;;;;;6232066;23;20410;-96
2020/12/23 00:12:09;;;;;;;60.07;37.30;;;;;;;;;;6229180;23;20489;-96
2020/12/23 00:14:35;;;;;;;66.67;39.30;;;;;;;;;;6230471;23;20525;-96
2020/12/23 00:17:07;;;;;;;72.10;42.07;;;;;;;;;;6235413;23;20410;-96
2020/12/23 00:22:19;;;;;;;62.70;40.07;;;;;;;;;;6239840;23;20482;-96
2020/12/23 00:24:45;;;;;;;62.13;37.40;;;;;;;;;;6238563;23;20415;-96
2020/12/23 00:30:04;;;;;;;63.13;38.60;;;;;;;;;;6237770;23;20305;-96
2020/12/23 00:32:53;;;;;;;67.23;40.13;;;;;;;;;;6225255;22;20450;-96
2020/12/23 00:38:49;;;;;;;66.67;38.90;;;;;;;;;;6153461;23;20400;-96
2020/12/23 00:41:22;;;;;;;76.20;42.17;;;;;;;;;;6140825;23;20405;-96
2020/12/23 00:43:49;;;;;;;69.20;38.80;;;;;;;;;;6207629;23;20417;-96
2020/12/23 00:46:15;;;;;;;69.10;40.30;;;;;;;;;;6230578;23;20417;-96
2020/12/23 00:48:42;;;;;;;63.03;37.93;;;;;;;;;;6230317;23;20453;-96
2020/12/23 00:51:09;;;;;;;59.77;37.57;;;;;;;;;;6224991;23;20482;-96
2020/12/23 00:53:35;;;;;;;64.30;38.10;;;;;;;;;;6226313;23;20450;-95
2020/12/23 00:56:01;;;;;;;65.00;38.90;;;;;;;;;;6224174;23;20418;-96
2020/12/23 00:58:28;;;;;;;66.23;38.80;;;;;;;;;;6227387;23;20486;-96
2020/12/23 01:03:40;;;;;;;62.23;37.93;;;;;;;;;;6241560;23;20485;-96
2020/12/23 01:06:10;;;;;;;67.30;39.47;;;;;;;;;;6242692;23;20415;-96
2020/12/23 01:11:21;;;;;;;67.17;38.90;;;;;;;;;;6239675;23;20418;-96
2020/12/23 01:16:56;;;;;;;63.97;39.23;;;;;;;;;;6248379;22;20445;-96
2020/12/23 01:19:37;;;;;;;68.27;38.10;;;;;;;;;;6271182;23;20417;-96
2020/12/23 01:22:04;;;;;;;62.27;38.70;;;;;;;;;;6272156;23;20424;-96
2020/12/23 01:24:33;;;;;;;63.50;35.03;;;;;;;;;;6269664;23;20409;-96
2020/12/23 01:29:47;;;;;;;74.27;39.33;;;;;;;;;;6268405;23;20740;-96
2020/12/23 01:32:15;;;;;;;71.63;38.83;;;;;;;;;;6265421;23;20990;-96
2020/12/23 01:34:44;;;;;;;66.77;36.67;;;;;;;;;;6268427;23;20456;-96
2020/12/23 01:37:18;;;;;;;70.10;38.07;;;;;;;;;;6272987;23;20847;-96
2020/12/23 01:48:45;;;;;;;54.20;33.27;;;;;;;;;;6270762;23;20402;-96
2020/12/23 01:54:25;;;;;;;59.63;33.97;;;;;;;;;;6272372;23;20433;-96
2020/12/23 01:57:07;;;;;;;55.57;34.13;;;;;;;;;;6268057;23;20456;-96
2020/12/23 01:59:34;;;;;;;67.70;38.33;;;;;;;;;;6252799;23;20481;-96
2020/12/23 02:02:08;;;;;;;65.17;37.80;;;;;;;;;;6261651;23;20493;-96
2020/12/23 02:04:35;;;;;;;67.83;39.10;;;;;;;;;;6262598;23;20406;-96
2020/12/23 02:07:02;;;;;;;72.13;37.43;;;;;;;;;;6262526;23;20463;-96
2020/12/23 02:09:31;;;;;;;65.47;36.53;;;;;;;;;;6267381;23;20405;-96
2020/12/23 02:12:02;;;;;;;66.80;38.67;;;;;;;;;;6238337;23;20418;-96
2020/12/23 02:14:32;;;;;;;69.53;39.37;;;;;;;;;;6272231;22;20438;-95
2020/12/23 02:17:29;;;;;;;63.40;39.10;;;;;;;;;;6273802;22;20455;-96
2020/12/23 02:20:03;;;;;;;69.30;37.57;;;;;;;;;;6267744;23;20457;-96
2020/12/23 02:22:32;;;;;;;64.03;36.97;;;;;;;;;;6264777;23;20428;-96
2020/12/23 02:25:00;;;;;;;64.93;37.00;;;;;;;;;;6261833;23;20461;-96
2020/12/23 02:27:27;;;;;;;70.67;38.47;;;;;;;;;;6263355;23;20418;-96
2020/12/23 02:29:54;;;;;;;67.87;36.97;;;;;;;;;;6264846;23;20436;-96
2020/12/23 02:32:28;;;;;;;68.60;39.17;;;;;;;;;;6267540;23;20438;-96
2020/12/23 02:34:54;;;;;;;62.30;35.77;;;;;;;;;;6260213;23;20456;-96
2020/12/23 02:37:21;;;;;;;68.57;36.90;;;;;;;;;;6258265;23;20501;-96
2020/12/23 02:39:49;;;;;;;66.77;36.27;;;;;;;;;;6257012;23;20462;-96
2020/12/23 02:42:16;;;;;;;57.97;34.83;;;;;;;;;;6258639;23;20424;-96
2020/12/23 02:44:42;;;;;;;65.70;36.77;;;;;;;;;;6258305;23;20418;-96
2020/12/23 02:47:11;;;;;;;68.50;37.30;;;;;;;;;;6263083;23;20414;-96
2020/12/23 02:49:41;;;;;;;64.20;36.13;;;;;;;;;;6267438;23;20418;-96
2020/12/23 02:54:59;;;;;;;65.60;33.23;;;;;;;;;;6269861;23;20463;-96
2020/12/23 02:57:31;;;;;;;65.27;35.93;;;;;;;;;;6271298;23;20409;-96
2020/12/23 02:59:59;;;;;;;62.10;36.60;;;;;;;;;;6270640;23;20424;-96
2020/12/23 03:02:36;;;;;;;66.20;37.00;;;;;;;;;;6270463;23;20413;-96
2020/12/23 03:07:45;;;;;;;63.67;34.03;;;;;;;;;;6258144;23;20428;-96
2020/12/23 03:10:13;;;;;;;64.43;35.13;;;;;;;;;;6255879;23;20420;-96
2020/12/23 03:12:58;;;;;;;64.43;36.50;;;;;;;;;;5164860;27;919668;-96
2020/12/23 03:15:24;;;;;;;62.70;34.03;;;;;;;;;;5167308;27;20188;-95
2020/12/23 03:17:50;;;;;;;65.63;36.80;;;;;;;;;;5180069;27;20460;-94
2020/12/23 03:20:16;;;;;;;62.03;36.60;;;;;;;;;;5179281;27;20489;-95
2020/12/23 03:22:42;;;;;;;66.90;36.27;;;;;;;;;;5184011;27;20456;-95
2020/12/23 03:25:08;;;;;;;59.23;34.67;;;;;;;;;;5172679;27;20449;-95
2020/12/23 03:27:35;;;;;;;64.23;33.97;;;;;;;;;;5183096;27;20552;-96
2020/12/23 03:30:02;;;;;;;63.23;36.30;;;;;;;;;;5179858;27;20456;-95
2020/12/23 03:32:28;;;;;;;76.43;38.07;;;;;;;;;;5183339;27;20548;-95
2020/12/23 03:34:54;;;;;;;64.77;36.30;;;;;;;;;;5179073;27;20540;-96
2020/12/23 03:37:20;;;;;;;62.40;35.53;;;;;;;;;;5169673;27;20450;-94
2020/12/23 03:39:46;;;;;;;73.33;36.33;;;;;;;;;;5171792;27;20516;-96
2020/12/23 03:42:19;;;;;;;61.83;34.80;;;;;;;;;;5187398;27;20527;-96
2020/12/23 03:44:49;;;;;;;67.73;36.10;;;;;;;;;;5185566;27;20547;-96
2020/12/23 03:47:17;;;;;;;72.83;36.67;;;;;;;;;;5183824;27;20458;-96
2020/12/23 03:49:43;;;;;;;67.33;36.80;;;;;;;;;;5186126;27;20505;-95
2020/12/23 03:52:09;;;;;;;69.23;36.50;;;;;;;;;;5172074;27;20481;-96
2020/12/23 03:54:38;;;;;;;68.33;35.10;;;;;;;;;;5182953;27;20451;-96
2020/12/23 03:57:05;;;;;;;68.53;37.33;;;;;;;;;;5169024;27;20448;-96
2020/12/23 03:59:32;;;;;;;69.70;35.77;;;;;;;;;;5174943;27;20196;-96
2020/12/23 04:01:58;;;;;;;69.30;35.90;;;;;;;;;;5187183;27;20535;-96
2020/12/23 04:04:25;;;;;;;65.93;36.67;;;;;;;;;;5176448;27;20512;-95
2020/12/23 04:06:51;;;;;;;62.37;34.70;;;;;;;;;;5195247;27;20435;-95
2020/12/23 04:09:18;;;;;;;60.83;35.00;;;;;;;;;;5171197;27;20509;-94
2020/12/23 04:11:44;;;;;;;63.40;35.93;;;;;;;;;;5192767;27;20856;-95
2020/12/23 04:14:10;;;;;;;62.97;35.17;;;;;;;;;;5182053;27;20463;-96
2020/12/23 04:16:36;;;;;;;65.07;35.13;;;;;;;;;;5184965;27;20452;-96
2020/12/23 04:19:02;;;;;;;67.87;34.17;;;;;;;;;;5187743;27;20451;-94
2020/12/23 04:21:29;;;;;;;62.03;34.97;;;;;;;;;;5182953;27;20447;-96
2020/12/23 04:23:57;;;;;;;73.87;39.67;;;;;;;;;;5167139;27;20454;-96
2020/12/23 04:26:24;;;;;;;61.00;36.13;;;;;;;;;;5163174;27;20453;-95
2020/12/23 04:28:50;;;;;;;62.93;35.10;;;;;;;;;;5169220;27;20430;-96
2020/12/23 04:31:16;;;;;;;70.53;37.70;;;;;;;;;;5166063;27;20488;-96
2020/12/23 04:33:42;;;;;;;66.80;36.90;;;;;;;;;;5168099;27;20465;-96
2020/12/23 04:36:08;;;;;;;68.90;37.70;;;;;;;;;;5153556;27;20529;-96
2020/12/23 04:38:35;;;;;;;73.03;37.27;;;;;;;;;;5148666;27;20543;-95
2020/12/23 04:41:02;;;;;;;66.73;38.53;;;;;;;;;;5155004;27;20463;-96
2020/12/23 04:43:28;;;;;;;66.40;36.70;;;;;;;;;;5168115;27;20453;-96
2020/12/23 04:45:55;;;;;;;60.63;36.70;;;;;;;;;;5165091;27;20470;-96
2020/12/23 04:48:26;;;;;;;73.10;36.80;;;;;;;;;;5147955;27;20591;-96
2020/12/23 04:50:54;;;;;;;66.77;37.37;;;;;;;;;;5147412;27;20476;-96
2020/12/23 04:53:20;;;;;;;66.43;37.30;;;;;;;;;;5160041;27;20529;-95
2020/12/23 04:55:47;;;;;;;69.23;36.13;;;;;;;;;;5164777;27;20960;-95
2020/12/23 04:58:13;;;;;;;65.03;34.63;;;;;;;;;;5160885;27;20465;-95
2020/12/23 05:00:39;;;;;;;63.80;36.10;;;;;;;;;;5168023;27;20439;-95
2020/12/23 05:03:05;;;;;;;64.10;36.40;;;;;;;;;;5166008;27;21001;-95
2020/12/23 05:05:31;;;;;;;61.50;36.73;;;;;;;;;;5168469;27;20525;-94
2020/12/23 05:07:58;;;;;;;69.87;38.20;;;;;;;;;;5166599;27;20462;-96
2020/12/23 05:10:27;;;;;;;73.33;39.40;;;;;;;;;;5152210;27;20445;-96
2020/12/23 05:12:54;;;;;;;76.90;39.87;;;;;;;;;;5158793;27;21147;-94
2020/12/23 05:15:20;;;;;;;70.93;38.73;;;;;;;;;;5166272;27;20450;-96
2020/12/23 05:17:47;;;;;;;64.63;37.13;;;;;;;;;;5165863;27;20511;-96
2020/12/23 05:20:13;;;;;;;62.00;36.23;;;;;;;;;;5163541;27;20462;-96
2020/12/23 05:22:39;;;;;;;67.67;38.77;;;;;;;;;;5167887;27;20464;-95
2020/12/23 05:25:05;;;;;;;71.43;37.07;;;;;;;;;;5162704;27;20446;-96
2020/12/23 05:27:36;;;;;;;67.80;36.73;;;;;;;;;;5169686;27;20445;-96
2020/12/23 05:30:04;;;;;;;70.47;36.00;;;;;;;;;;5168380;27;20440;-96
2020/12/23 05:32:37;;;;;;;67.80;36.73;;;;;;;;;;5151627;27;20477;-96
2020/12/23 05:35:03;;;;;;;65.10;36.70;;;;;;;;;;5150289;27;20450;-95
2020/12/23 05:37:29;;;;;;;67.87;36.00;;;;;;;;;;5157666;27;20440;-95
2020/12/23 05:39:55;;;;;;;72.37;37.67;;;;;;;;;;5157846;27;21014;-96
2020/12/23 05:42:22;;;;;;;63.70;35.40;;;;;;;;;;5146455;27;20487;-95
2020/12/23 05:44:51;;;;;;;73.37;36.70;;;;;;;;;;5146950;27;20529;-96
2020/12/23 05:47:22;;;;;;;67.83;38.47;;;;;;;;;;5145710;27;20541;-96
2020/12/23 05:49:49;;;;;;;59.60;34.60;;;;;;;;;;5166767;27;20454;-96
2020/12/23 05:52:15;;;;;;;60.20;34.10;;;;;;;;;;5158181;27;20478;-96
2020/12/23 05:54:41;;;;;;;67.17;37.63;;;;;;;;;;5151595;27;20470;-96
2020/12/23 05:57:07;;;;;;;63.60;36.30;;;;;;;;;;5171028;27;20478;-96
2020/12/23 05:59:33;;;;;;;64.40;37.13;;;;;;;;;;5169999;27;20446;-96
2020/12/23 06:02:00;;;;;;;75.30;40.00;;;;;;;;;;5164317;27;20472;-96
2020/12/23 06:04:28;;;;;;;76.53;41.17;;;;;;;;;;5151503;27;20450;-96
2020/12/23 06:06:57;;;;;;;77.83;43.03;;;;;;;;;;5157123;27;20509;-96
2020/12/23 06:09:30;;;;;;;71.07;41.70;;;;;;;;;;5149176;27;20454;-96
2020/12/23 06:11:57;;;;;;;70.33;39.80;;;;;;;;;;5160214;27;20549;-96
2020/12/23 06:14:24;;;;;;;72.17;39.90;;;;;;;;;;5158285;27;20978;-96
2020/12/23 06:16:51;;;;;;;77.10;41.47;;;;;;;;;;5165486;27;20457;-96
2020/12/23 06:19:24;;;;;;;83.90;46.53;;;;;;;;;;5163322;27;20455;-96
2020/12/23 06:21:51;;;;;;;93.87;48.07;;;;;;;;;;5165877;27;20483;-95
2020/12/23 06:33:13;;;;;;;80.83;42.10;;;;;;;;;;5185995;22;20492;-95
2020/12/23 06:35:39;;;;;;;78.63;40.87;;;;;;;;;;5061543;28;20462;-94
2020/12/23 06:38:19;;;;;;;73.90;40.50;;;;;;;;;;5059773;28;20504;-94
2020/12/23 06:40:56;;;;;;;79.07;44.00;;;;;;;;;;5060940;28;21114;-94
2020/12/23 06:43:47;;;;;;;87.13;46.50;;;;;;;;;;5053040;28;21058;-94
2020/12/23 06:46:13;;;;;;;92.30;49.87;;;;;;;;;;5054911;28;20465;-95
2020/12/23 06:48:39;;;;;;;78.27;44.10;;;;;;;;;;5052293;28;20476;-94
2020/12/23 06:51:05;;;;;;;83.73;47.30;;;;;;;;;;5054525;28;20478;-93
2020/12/23 06:53:38;;;;;;;85.60;44.80;;;;;;;;;;5052869;28;20485;-94
2020/12/23 06:56:04;;;;;;;77.40;43.73;;;;;;;;;;5068261;28;20445;-91
2020/12/23 06:58:37;;;;;;;81.00;47.07;;;;;;;;;;5061908;28;20461;-90
2020/12/23 07:01:14;;;;;;;84.10;44.00;;;;;;;;;;5060313;28;20487;-90
2020/12/23 07:03:41;;;;;;;78.03;43.73;;;;;;;;;;5058198;28;20449;-91
2020/12/23 07:06:27;;;;;;;77.00;41.37;;;;;;;;;;5061226;28;20461;-91
2020/12/23 07:08:54;;;;;;;85.63;48.00;;;;;;;;;;5057896;28;20512;-90
2020/12/23 07:11:21;;;;;;;111.53;57.87;;;;;;;;;;5061635;28;20482;-91
2020/12/23 07:13:49;;;;;;;101.00;58.77;;;;;;;;;;5061808;28;20504;-91
2020/12/23 07:16:15;;;;;;;120.70;60.97;;;;;;;;;;5059127;28;20469;-91
2020/12/23 07:18:41;;;;;;;111.43;61.13;;;;;;;;;;5061839;28;20519;-90
2020/12/23 07:21:07;;;;;;;95.50;54.47;;;;;;;;;;5057387;28;20541;-90
2020/12/23 07:23:34;;;;;;;94.87;54.43;;;;;;;;;;5061732;28;20449;-92
2020/12/23 07:26:02;;;;;;;94.03;56.57;;;;;;;;;;5058246;28;20480;-91
2020/12/23 07:28:30;;;;;;;102.93;58.30;;;;;;;;;;5060600;28;20484;-91
2020/12/23 07:30:56;;;;;;;106.83;58.17;;;;;;;;;;5057938;28;20473;-92
2020/12/23 07:33:23;;;;;;;93.93;55.80;;;;;;;;;;5059379;28;20476;-91
2020/12/23 07:35:50;;;;;;;94.60;53.00;;;;;;;;;;5062451;28;20442;-91
2020/12/23 07:38:16;;;;;;;100.40;54.87;;;;;;;;;;5058799;28;20486;-92
2020/12/23 07:40:42;;;;;;;97.53;56.60;;;;;;;;;;5060850;28;20454;-92
2020/12/23 07:43:10;;;;;;;97.83;54.70;;;;;;;;;;5059737;28;20464;-91
2020/12/23 07:45:37;;;;;;;96.50;56.53;;;;;;;;;;5066955;28;20464;-92
2020/12/23 07:48:04;;;;;;;95.77;54.40;;;;;;;;;;5063436;28;21069;-91
2020/12/23 07:50:31;;;;;;;100.47;53.40;;;;;;;;;;5060319;28;20446;-92
2020/12/23 07:52:57;;;;;;;100.00;53.10;;;;;;;;;;5059231;28;20492;-92
2020/12/23 07:55:23;;;;;;;88.57;50.20;;;;;;;;;;5058609;28;20472;-92
2020/12/23 07:57:50;;;;;;;101.53;52.57;;;;;;;;;;5058858;28;20465;-93
2020/12/23 08:00:18;;;;;;;95.47;52.30;;;;;;;;;;5062158;28;20483;-92
2020/12/23 08:02:43;;;;;;;101.07;52.60;;;;;;;;;;5064152;28;20462;-92
2020/12/23 08:05:10;;;;;;;91.10;49.80;;;;;;;;;;5062820;28;20516;-93
2020/12/23 08:07:40;;;;;;;84.53;48.00;;;;;;;;;;5064542;28;20493;-92
2020/12/23 08:10:08;;;;;;;90.43;50.47;;;;;;;;;;5063363;28;20454;-92
2020/12/23 08:12:34;;;;;;;91.10;52.90;;;;;;;;;;5066598;28;20485;-91
2020/12/23 08:15:00;;;;;;;92.43;52.17;;;;;;;;;;5064528;28;20454;-92
2020/12/23 08:17:27;;;;;;;95.50;52.50;;;;;;;;;;5062955;28;20469;-93
2020/12/23 08:20:06;;;;;;;86.27;52.00;;;;;;;;;;5064922;28;20449;-93
2020/12/23 08:22:33;;;;;;;90.63;54.70;;;;;;;;;;5062476;28;20472;-93
2020/12/23 08:25:03;;;;;;;104.77;62.23;;;;;;;;;;5070106;28;20480;-92
2020/12/23 08:27:29;;;;;;;107.80;66.67;;;;;;;;;;5062741;28;20466;-92
2020/12/23 08:29:55;;;;;;;109.17;67.90;;;;;;;;;;5064672;28;20537;-92
2020/12/23 08:32:24;;;;;;;124.10;73.60;;;;;;;;;;5061766;28;20523;-92
2020/12/23 08:34:52;;;;;;;117.80;73.00;;;;;;;;;;5064590;28;20454;-91
2020/12/23 08:37:21;;;;;;;120.83;73.20;;;;;;;;;;5060844;28;20462;-92
2020/12/23 08:39:52;;;;;;;116.93;70.10;;;;;;;;;;5064505;28;20454;-93
2020/12/23 08:42:18;;;;;;;117.37;71.97;;;;;;;;;;5063513;28;20465;-92
2020/12/23 08:44:45;;;;;;;121.17;69.43;;;;;;;;;;5063667;28;20455;-93
2020/12/23 08:47:11;;;;;;;106.47;63.00;;;;;;;;;;5061347;28;20465;-93
2020/12/23 08:49:42;;;;;;;102.67;59.50;;;;;;;;;;5061514;28;20450;-93
2020/12/23 08:52:16;;;;;;;99.10;59.13;;;;;;;;;;5064637;28;20504;-93
2020/12/23 08:54:42;;;;;;;100.60;58.63;;;;;;;;;;5060634;28;20454;-93
2020/12/23 08:57:09;;;;;;;116.67;69.37;;;;;;;;;;5062808;28;20450;-93
2020/12/23 08:59:39;;;;;;;127.30;76.20;;;;;;;;;;5057727;28;21792;-93
2020/12/23 09:02:11;;;;;;;124.70;79.60;;;;;;;;;;5040979;28;20486;-92
2020/12/23 09:04:37;;;;;;;128.63;80.80;;;;;;;;;;5044541;28;22765;-93
2020/12/23 09:07:03;;;;;;;131.30;80.43;;;;;;;;;;5063888;28;20458;-92
2020/12/23 09:09:30;;;;;;;134.37;80.17;;;;;;;;;;5062972;28;20462;-91
2020/12/23 09:11:57;;;;;;;133.60;84.80;;;;;;;;;;5061162;28;20512;-92
2020/12/23 09:14:26;;;;;;;143.40;86.63;;;;;;;;;;5063205;28;20472;-92
2020/12/23 09:16:56;;;;;;;133.20;81.03;;;;;;;;;;5060921;28;20480;-92
2020/12/23 09:19:37;;;;;;;126.17;77.93;;;;;;;;;;5064057;28;20450;-92
2020/12/23 09:22:03;;;;;;;134.80;81.53;;;;;;;;;;5060447;28;20457;-91
2020/12/23 09:24:30;;;;;;;142.57;87.60;;;;;;;;;;5062951;28;20477;-92
2020/12/23 09:26:56;;;;;;;123.97;76.80;;;;;;;;;;5059594;28;20481;-92
2020/12/23 09:29:22;;;;;;;113.47;67.67;;;;;;;;;;5064028;28;20446;-92
2020/12/23 09:31:53;;;;;;;109.47;63.20;;;;;;;;;;5060950;28;20490;-93
2020/12/23 09:34:22;;;;;;;115.60;66.57;;;;;;;;;;5072084;28;20452;-93
2020/12/23 09:36:54;;;;;;;138.70;88.27;;;;;;;;;;5063674;28;20519;-91
2020/12/23 09:39:20;;;;;;;138.53;89.00;;;;;;;;;;5061886;28;20512;-91
2020/12/23 09:41:47;;;;;;;128.87;80.53;;;;;;;;;;5062895;28;20445;-92
2020/12/23 09:44:13;;;;;;;124.07;73.70;;;;;;;;;;5061038;28;20465;-91
2020/12/23 09:46:39;;;;;;;121.20;68.00;;;;;;;;;;5061352;28;21003;-91
2020/12/23 09:49:05;;;;;;;124.70;73.53;;;;;;;;;;5060343;28;20535;-91
2020/12/23 09:51:31;;;;;;;112.83;68.60;;;;;;;;;;5063690;28;21009;-92
2020/12/23 09:53:57;;;;;;;112.07;63.27;;;;;;;;;;5060146;28;20474;-92
2020/12/23 09:56:23;;;;;;;110.63;65.40;;;;;;;;;;5061361;28;20453;-93
2020/12/23 09:58:49;;;;;;;109.67;63.03;;;;;;;;;;5060137;28;20464;-93
2020/12/23 10:01:15;;;;;;;95.97;56.80;;;;;;;;;;5061462;28;20463;-92
2020/12/23 10:03:41;;;;;;;96.47;58.73;;;;;;;;;;5062415;28;20465;-92
2020/12/23 10:06:07;;;;;;;98.83;55.17;;;;;;;;;;5060807;28;20450;-92
2020/12/23 10:08:33;;;;;;;102.40;58.70;;;;;;;;;;5060464;28;20446;-92
2020/12/23 10:10:59;;;;;;;86.50;54.80;;;;;;;;;;5053201;28;20480;-92
2020/12/23 10:13:25;;;;;;;110.30;63.93;;;;;;;;;;5054930;28;20497;-93
2020/12/23 10:15:53;;;;;;;97.83;56.97;;;;;;;;;;5059601;28;20459;-92
2020/12/23 10:18:19;;;;;;;94.70;57.40;;;;;;;;;;5063720;28;20454;-93
2020/12/23 10:20:45;;;;;;;95.43;55.40;;;;;;;;;;5062041;28;20457;-92
2020/12/23 10:23:11;;;;;;;89.77;51.90;;;;;;;;;;5059127;28;20485;-92
2020/12/23 10:25:39;;;;;;;85.70;52.97;;;;;;;;;;5062068;28;20449;-93
2020/12/23 10:28:05;;;;;;;81.07;49.43;;;;;;;;;;5058422;28;20454;-93
2020/12/23 10:30:31;;;;;;;92.10;51.30;;;;;;;;;;5063391;28;20445;-93
2020/12/23 10:32:58;;;;;;;90.23;53.20;;;;;;;;;;5058827;28;20486;-93
2020/12/23 10:35:24;;;;;;;78.57;49.57;;;;;;;;;;5061797;28;20446;-92
2020/12/23 10:37:49;;;;;;;78.13;46.67;;;;;;;;;;5058274;28;20485;-93
2020/12/23 10:40:15;;;;;;;88.30;52.60;;;;;;;;;;5064830;28;20453;-92
2020/12/23 10:42:41;;;;;;;80.40;51.40;;;;;;;;;;5060821;28;20491;-92
2020/12/23 10:45:07;;;;;;;90.63;53.13;;;;;;;;;;5055523;28;20450;-92
2020/12/23 10:47:34;;;;;;;94.80;53.73;;;;;;;;;;5060310;28;20462;-92
2020/12/23 10:50:01;;;;;;;85.47;52.67;;;;;;;;;;5056798;28;20461;-92
2020/12/23 10:52:27;;;;;;;91.83;54.67;;;;;;;;;;5061016;28;20481;-91
2020/12/23 10:54:54;;;;;;;89.87;55.13;;;;;;;;;;5063905;28;20537;-92
2020/12/23 10:57:20;;;;;;;87.20;52.60;;;;;;;;;;5081512;28;20533;-92
2020/12/23 10:59:46;;;;;;;92.33;50.50;;;;;;;;;;5073722;28;20873;-92
2020/12/23 11:02:12;;;;;;;72.07;46.17;;;;;;;;;;5058933;28;20500;-92
2020/12/23 11:04:38;;;;;;;74.23;44.80;;;;;;;;;;5060156;28;20461;-92
2020/12/23 11:07:05;;;;;;;72.30;44.00;;;;;;;;;;5058155;28;20449;-92
2020/12/23 11:09:31;;;;;;;74.10;43.37;;;;;;;;;;5060812;28;20455;-92
2020/12/23 11:11:57;;;;;;;68.17;39.87;;;;;;;;;;5058125;28;20496;-92
2020/12/23 11:14:23;;;;;;;54.60;35.57;;;;;;;;;;5062135;28;20474;-91
2020/12/23 11:16:49;;;;;;;65.33;40.23;;;;;;;;;;5059741;28;20910;-91
2020/12/23 11:19:16;;;;;;;61.20;40.83;;;;;;;;;;5063089;28;20464;-92
2020/12/23 11:21:42;;;;;;;78.20;48.77;;;;;;;;;;5062912;28;20466;-92
2020/12/23 11:24:09;;;;;;;78.00;48.50;;;;;;;;;;5060265;28;20450;-92
2020/12/23 11:26:35;;;;;;;78.33;50.60;;;;;;;;;;5057815;28;20463;-92
2020/12/23 11:29:01;;;;;;;86.30;52.63;;;;;;;;;;5058526;28;20533;-92
2020/12/23 11:31:27;;;;;;;83.23;51.63;;;;;;;;;;5061159;28;20494;-92
2020/12/23 11:33:53;;;;;;;76.60;51.37;;;;;;;;;;5061160;28;20459;-93
2020/12/23 11:36:19;;;;;;;86.73;51.50;;;;;;;;;;5065316;28;20450;-92
2020/12/23 11:38:45;;;;;;;81.27;48.10;;;;;;;;;;5063020;28;20459;-92
2020/12/23 11:41:12;;;;;;;93.43;51.30;;;;;;;;;;5066131;28;20469;-91
2020/12/23 11:43:39;;;;;;;79.03;48.77;;;;;;;;;;5064021;28;20455;-91
2020/12/23 11:46:05;;;;;;;75.37;47.97;;;;;;;;;;5064238;28;20461;-92
2020/12/23 11:48:31;;;;;;;79.83;48.73;;;;;;;;;;5086504;22;20518;-92
2020/12/23 11:50:57;;;;;;;79.57;48.80;;;;;;;;;;5054974;28;20464;-92
2020/12/23 11:53:23;;;;;;;85.87;49.47;;;;;;;;;;5059536;28;20495;-92
2020/12/23 11:55:50;;;;;;;89.20;50.33;;;;;;;;;;5060485;28;20981;-91
2020/12/23 11:58:17;;;;;;;76.00;46.47;;;;;;;;;;5063166;28;20466;-91
2020/12/23 12:00:42;;;;;;;76.77;48.10;;;;;;;;;;5062257;28;20469;-91
2020/12/23 12:03:09;;;;;;;70.30;45.90;;;;;;;;;;5064113;28;20475;-92
2020/12/23 12:05:35;;;;;;;80.27;46.67;;;;;;;;;;5060495;28;20447;-94
2020/12/23 12:08:03;;;;;;;66.57;42.20;;;;;;;;;;5063520;28;20459;-96
2020/12/23 12:10:29;;;;;;;73.73;44.07;;;;;;;;;;5063440;28;20514;-95
2020/12/23 12:12:55;;;;;;;71.87;41.33;;;;;;;;;;5057061;28;20496;-94
2020/12/23 12:15:22;;;;;;;64.53;42.53;;;;;;;;;;5045077;28;20468;-94
2020/12/23 12:17:48;;;;;;;58.77;38.60;;;;;;;;;;5057036;28;20457;-96
2020/12/23 12:20:14;;;;;;;55.90;37.50;;;;;;;;;;5050011;28;20475;-95
2020/12/23 12:22:40;;;;;;;52.30;34.77;;;;;;;;;;5052259;28;20446;-95
2020/12/23 12:25:06;;;;;;;60.67;39.03;;;;;;;;;;5062516;28;20465;-94
2020/12/23 12:27:32;;;;;;;59.77;38.90;;;;;;;;;;5060532;28;20462;-93
2020/12/23 12:29:58;;;;;;;43.40;28.67;;;;;;;;;;5064916;28;20455;-95
2020/12/23 12:32:25;;;;;;;49.87;31.00;;;;;;;;;;5065164;28;20872;-94
2020/12/23 12:34:51;;;;;;;49.03;31.60;;;;;;;;;;5060999;28;20451;-95
2020/12/23 12:37:17;;;;;;;43.10;29.50;;;;;;;;;;5062936;28;20460;-96
2020/12/23 12:39:43;;;;;;;44.83;27.33;;;;;;;;;;5061019;28;20477;-95
2020/12/23 12:42:09;;;;;;;38.40;24.97;;;;;;;;;;5065768;28;20444;-94
2020/12/23 12:44:35;;;;;;;37.80;25.57;;;;;;;;;;5061585;28;20456;-93
2020/12/23 12:47:01;;;;;;;38.60;27.23;;;;;;;;;;5062576;28;20511;-94
2020/12/23 12:49:28;;;;;;;38.63;26.20;;;;;;;;;;5058765;28;20466;-93
2020/12/23 12:51:56;;;;;;;39.40;26.27;;;;;;;;;;5061782;28;20486;-94
2020/12/23 12:54:24;;;;;;;36.23;24.07;;;;;;;;;;5063128;28;20452;-93
2020/12/23 12:56:50;;;;;;;39.80;26.40;;;;;;;;;;5062278;28;20452;-95
2020/12/23 12:59:16;;;;;;;50.23;29.03;;;;;;;;;;5063417;28;20465;-93
2020/12/23 13:01:42;;;;;;;38.70;27.00;;;;;;;;;;5057626;28;20522;-92
2020/12/23 13:04:09;;;;;;;39.80;25.23;;;;;;;;;;5065283;28;21104;-92
2020/12/23 13:06:36;;;;;;;35.70;24.17;;;;;;;;;;5058283;28;21313;-92
2020/12/23 13:09:03;;;;;;;41.47;26.37;;;;;;;;;;5068906;28;20470;-93
2020/12/23 13:11:29;;;;;;;37.60;26.40;;;;;;;;;;5060201;28;20496;-92
2020/12/23 13:13:56;;;;;;;45.47;27.53;;;;;;;;;;5061595;28;20456;-93
2020/12/23 13:16:26;;;;;;;41.97;28.83;;;;;;;;;;5062522;28;20453;-94
2020/12/23 13:18:52;;;;;;;38.83;27.53;;;;;;;;;;5058402;28;20473;-93
2020/12/23 13:21:18;;;;;;;40.40;26.93;;;;;;;;;;5062587;28;20488;-94
2020/12/23 13:23:44;;;;;;;41.83;28.17;;;;;;;;;;5060271;28;20451;-93
2020/12/23 13:26:11;;;;;;;40.60;28.60;;;;;;;;;;5063653;28;20460;-94
2020/12/23 13:28:37;;;;;;;40.80;28.57;;;;;;;;;;5060877;28;20559;-93
2020/12/23 13:31:03;;;;;;;39.03;26.23;;;;;;;;;;5062332;28;20827;-93
2020/12/23 13:33:29;;;;;;;40.13;27.47;;;;;;;;;;5042257;28;20540;-93
2020/12/23 13:35:55;;;;;;;39.43;27.40;;;;;;;;;;5062860;28;20448;-94
2020/12/23 13:38:23;;;;;;;38.17;26.10;;;;;;;;;;5061883;28;20478;-93
2020/12/23 13:40:50;;;;;;;38.00;27.07;;;;;;;;;;5061434;28;20484;-93
2020/12/23 13:43:16;;;;;;;38.13;26.50;;;;;;;;;;5063963;28;20460;-93
2020/12/23 13:45:42;;;;;;;38.73;27.00;;;;;;;;;;5059253;28;20461;-93
2020/12/23 13:48:08;;;;;;;48.40;26.93;;;;;;;;;;5059504;28;20495;-93
2020/12/23 13:50:36;;;;;;;43.57;28.63;;;;;;;;;;5056957;28;20467;-93
2020/12/23 13:53:03;;;;;;;49.00;31.27;;;;;;;;;;5060750;28;20491;-93
2020/12/23 13:55:29;;;;;;;47.80;28.90;;;;;;;;;;5060495;28;20464;-93
2020/12/23 13:57:55;;;;;;;44.10;28.73;;;;;;;;;;5062921;28;20458;-93
2020/12/23 14:00:21;;;;;;;40.50;26.33;;;;;;;;;;5061727;28;20448;-94
2020/12/23 14:02:47;;;;;;;39.47;26.63;;;;;;;;;;5057977;28;20470;-93
2020/12/23 14:05:14;;;;;;;41.77;26.67;;;;;;;;;;5061965;28;20442;-92
2020/12/23 14:07:40;;;;;;;45.33;27.80;;;;;;;;;;5061263;28;20484;-93
2020/12/23 14:10:06;;;;;;;40.23;28.03;;;;;;;;;;5063101;28;20462;-93
2020/12/23 14:12:32;;;;;;;44.30;28.30;;;;;;;;;;5058934;28;20492;-93
2020/12/23 14:14:58;;;;;;;47.30;27.80;;;;;;;;;;5061642;28;20457;-92
2020/12/23 14:17:27;;;;;;;43.70;27.87;;;;;;;;;;5056657;28;20474;-92
2020/12/23 14:19:53;;;;;;;38.97;26.70;;;;;;;;;;5062057;28;20446;-94
2020/12/23 14:22:19;;;;;;;41.93;26.93;;;;;;;;;;5059821;28;20467;-94
2020/12/23 14:24:45;;;;;;;45.53;27.03;;;;;;;;;;5060598;28;20463;-94
2020/12/23 14:27:11;;;;;;;41.20;27.70;;;;;;;;;;5062647;28;20447;-94
2020/12/23 14:29:37;;;;;;;41.30;26.10;;;;;;;;;;5058755;28;20448;-93
2020/12/23 14:32:04;;;;;;;45.83;27.17;;;;;;;;;;5061654;28;20499;-93
2020/12/23 14:34:30;;;;;;;41.30;27.30;;;;;;;;;;5059268;28;20456;-92
2020/12/23 14:36:57;;;;;;;38.20;26.47;;;;;;;;;;5062332;28;20467;-93
2020/12/23 14:39:23;;;;;;;37.10;23.67;;;;;;;;;;5059270;28;20460;-93
2020/12/23 14:41:50;;;;;;;43.07;27.10;;;;;;;;;;5059778;28;20454;-93
2020/12/23 14:44:16;;;;;;;44.77;27.23;;;;;;;;;;5060965;28;20473;-93
2020/12/23 14:46:42;;;;;;;39.33;25.10;;;;;;;;;;5058779;28;20464;-94
2020/12/23 14:49:09;;;;;;;47.50;30.10;;;;;;;;;;5062236;28;20479;-94
2020/12/23 14:51:35;;;;;;;43.67;28.97;;;;;;;;;;5059408;28;20464;-93
2020/12/23 14:54:01;;;;;;;46.40;27.63;;;;;;;;;;5063180;28;20478;-94
2020/12/23 14:56:27;;;;;;;46.37;28.60;;;;;;;;;;5063432;28;20454;-92
2020/12/23 14:58:52;;;;;;;51.47;32.03;;;;;;;;;;5067194;28;20450;-93
2020/12/23 15:01:19;;;;;;;44.27;28.87;;;;;;;;;;5059375;28;20839;-92
2020/12/23 15:03:45;;;;;;;46.77;28.37;;;;;;;;;;5061840;28;20468;-92
2020/12/23 15:06:12;;;;;;;43.50;28.10;;;;;;;;;;5060784;28;20446;-93